Time;durP1;ratioP1;P1;durP2;ratioP2;P2;SDS_P1;SDS_P2;PMS_P1;PMS_P2;Temp;Humidity;BMP_temperature;BMP_pressure;BME280_temperature;BME280_humidity;BME280_pressure;Samples;Min_cycle;Max_cycle;Signal;HPM_P1;HPM_P2
2024/02/19 00:00:24;;;;;;;32.30;9.87;;;12.00;99.90;;;;;;7287114;19;20208;-79
2024/02/19 00:02:51;;;;;;;25.30;9.97;;;12.00;99.90;;;;;;7285364;19;20225;-79
2024/02/19 00:05:16;;;;;;;30.83;10.17;;;12.00;99.90;;;;;;7285044;19;20188;-79
2024/02/19 00:07:42;;;;;;;32.80;9.90;;;12.10;99.90;;;;;;7299358;19;21006;-78
2024/02/19 00:10:08;;;;;;;29.10;9.77;;;12.10;99.90;;;;;;7303930;19;20292;-80
2024/02/19 00:12:34;;;;;;;25.33;9.73;;;12.20;99.90;;;;;;7286407;19;20204;-79
2024/02/19 00:15:00;;;;;;;26.67;10.23;;;12.20;99.90;;;;;;7285588;19;20670;-79
2024/02/19 00:17:26;;;;;;;33.20;10.73;;;12.30;99.90;;;;;;7286515;19;20216;-80
2024/02/19 00:19:51;;;;;;;36.50;10.00;;;12.30;99.90;;;;;;7287277;19;20200;-80
2024/02/19 00:22:17;;;;;;;28.23;10.23;;;12.30;99.90;;;;;;7286410;19;20198;-79
2024/02/19 00:24:44;;;;;;;34.90;11.00;;;12.30;99.90;;;;;;7290583;19;20197;-79
2024/02/19 00:27:09;;;;;;;34.27;10.80;;;12.30;99.90;;;;;;7309786;19;20254;-80
2024/02/19 00:29:35;;;;;;;28.63;10.20;;;12.40;99.90;;;;;;7285691;19;20197;-79
2024/02/19 00:32:02;;;;;;;36.93;11.60;;;12.30;99.90;;;;;;7285054;19;20191;-80
2024/02/19 00:34:28;;;;;;;31.97;10.47;;;12.30;99.90;;;;;;7286815;19;20359;-79
2024/02/19 00:36:54;;;;;;;29.53;10.30;;;12.40;99.90;;;;;;7286994;19;20581;-80
2024/02/19 00:39:20;;;;;;;29.10;10.87;;;12.30;99.90;;;;;;7283983;19;20220;-79
2024/02/19 00:41:45;;;;;;;31.00;11.00;;;12.40;99.90;;;;;;7286679;19;20715;-79
2024/02/19 00:44:12;;;;;;;30.90;11.50;;;12.40;99.90;;;;;;7308374;19;20206;-79
2024/02/19 00:46:37;;;;;;;28.23;10.77;;;12.30;99.90;;;;;;7285084;19;20192;-80
2024/02/19 00:49:03;;;;;;;31.17;10.93;;;12.30;99.90;;;;;;7284865;19;20556;-80
2024/02/19 00:51:29;;;;;;;29.07;11.23;;;12.40;99.90;;;;;;7285490;19;20205;-79
2024/02/19 00:53:54;;;;;;;33.67;12.33;;;12.30;99.90;;;;;;7285607;19;20193;-79
2024/02/19 00:56:20;;;;;;;35.10;12.03;;;12.20;99.90;;;;;;7285356;19;20193;-79
2024/02/19 00:58:46;;;;;;;30.57;11.77;;;12.20;99.90;;;;;;7285150;19;20533;-78
2024/02/19 01:01:12;;;;;;;35.23;12.73;;;12.20;99.90;;;;;;7303529;19;20564;-76
2024/02/19 01:03:37;;;;;;;31.23;11.97;;;12.30;99.90;;;;;;7298656;19;20325;-79
2024/02/19 01:06:03;;;;;;;36.07;13.63;;;12.30;99.90;;;;;;7285296;19;20882;-79
2024/02/19 01:08:29;;;;;;;36.67;12.83;;;12.40;99.90;;;;;;7283924;19;20257;-79
2024/02/19 01:10:55;;;;;;;40.00;12.37;;;12.30;99.90;;;;;;7285077;19;20197;-79
2024/02/19 01:13:21;;;;;;;37.50;11.87;;;12.30;99.90;;;;;;7281858;19;20193;-79
2024/02/19 01:15:46;;;;;;;33.20;11.73;;;12.40;99.90;;;;;;7283228;19;20200;-79
2024/02/19 01:18:12;;;;;;;40.30;11.80;;;12.30;99.90;;;;;;7298313;19;20604;-78
2024/02/19 01:20:38;;;;;;;38.57;11.53;;;12.30;99.90;;;;;;7298229;19;20281;-79
2024/02/19 01:23:03;;;;;;;33.33;11.53;;;12.30;99.90;;;;;;7282612;19;20203;-79
2024/02/19 01:25:29;;;;;;;38.20;11.93;;;12.30;99.90;;;;;;7284048;19;20205;-79
2024/02/19 01:27:55;;;;;;;33.57;12.33;;;12.40;99.90;;;;;;7283292;19;20208;-79
2024/02/19 01:30:21;;;;;;;40.07;11.53;;;12.40;99.90;;;;;;7284672;19;20205;-79
2024/02/19 01:32:47;;;;;;;30.10;10.27;;;12.40;99.90;;;;;;7284773;19;20205;-79
2024/02/19 01:35:12;;;;;;;33.90;10.77;;;12.40;99.90;;;;;;7294764;19;20698;-78
2024/02/19 01:37:39;;;;;;;29.47;10.67;;;12.50;99.90;;;;;;7301210;19;20204;-79
2024/02/19 01:40:09;;;;;;;32.40;9.77;;;12.50;99.90;;;;;;7281519;19;20191;-80
2024/02/19 01:42:35;;;;;;;25.20;9.43;;;12.50;99.90;;;;;;7283737;19;20203;-80
2024/02/19 01:45:02;;;;;;;29.53;10.73;;;12.40;99.90;;;;;;7282869;19;20228;-80
2024/02/19 01:47:32;;;;;;;31.43;9.40;;;12.40;99.90;;;;;;7284125;19;20677;-80
2024/02/19 01:49:58;;;;;;;31.07;9.70;;;12.50;99.90;;;;;;7284416;19;20207;-80
2024/02/19 01:52:24;;;;;;;33.90;9.30;;;12.50;99.90;;;;;;7283104;19;20202;-80
2024/02/19 01:54:50;;;;;;;30.50;9.03;;;12.50;99.90;;;;;;7283479;19;20190;-80
2024/02/19 01:57:16;;;;;;;28.50;8.90;;;12.50;99.90;;;;;;7283684;19;20194;-80
2024/02/19 01:59:43;;;;;;;33.73;9.23;;;12.50;99.90;;;;;;7304856;19;20195;-80
2024/02/19 02:02:09;;;;;;;28.00;9.20;;;12.50;99.90;;;;;;7285159;19;20544;-80
2024/02/19 02:04:36;;;;;;;25.47;8.77;;;12.50;99.90;;;;;;7283090;19;20239;-80
2024/02/19 02:07:03;;;;;;;31.67;9.33;;;12.40;99.90;;;;;;7283513;19;20252;-80
2024/02/19 02:09:30;;;;;;;29.97;9.20;;;12.40;99.90;;;;;;7283737;19;20201;-81
2024/02/19 02:11:56;;;;;;;28.93;8.33;;;12.30;99.90;;;;;;7280621;19;20194;-80
2024/02/19 02:14:21;;;;;;;26.03;8.90;;;12.40;99.90;;;;;;7281370;19;20215;-80
2024/02/19 02:16:48;;;;;;;26.77;8.07;;;12.30;99.90;;;;;;7283797;19;20195;-80
2024/02/19 02:19:15;;;;;;;31.07;8.33;;;12.30;99.90;;;;;;7281443;19;20206;-79
2024/02/19 02:21:42;;;;;;;31.80;8.60;;;12.30;99.90;;;;;;7303458;19;20188;-80
2024/02/19 02:24:08;;;;;;;23.90;8.50;;;12.30;99.90;;;;;;7282293;19;20198;-80
2024/02/19 02:26:41;;;;;;;24.20;8.13;;;12.30;99.90;;;;;;7282985;19;20202;-81
2024/02/19 02:29:07;;;;;;;33.40;8.37;;;12.20;99.90;;;;;;7286342;19;20615;-80
2024/02/19 02:31:33;;;;;;;29.60;8.83;;;12.20;99.90;;;;;;7285680;19;20208;-80
2024/02/19 02:33:59;;;;;;;28.23;8.10;;;12.20;99.90;;;;;;7286826;19;20189;-80
2024/02/19 02:36:25;;;;;;;22.70;7.97;;;12.20;99.90;;;;;;7287449;19;20655;-81
2024/02/19 02:38:50;;;;;;;27.23;8.03;;;12.20;99.90;;;;;;7286979;19;20732;-82
2024/02/19 02:41:17;;;;;;;25.97;8.00;;;12.20;99.90;;;;;;7290195;19;20648;-79
2024/02/19 02:43:42;;;;;;;26.40;8.33;;;12.20;99.90;;;;;;7297516;19;20200;-79
2024/02/19 02:46:08;;;;;;;28.70;8.40;;;12.20;99.90;;;;;;7300378;19;20201;-80
2024/02/19 02:48:34;;;;;;;20.10;8.10;;;12.20;99.90;;;;;;7282459;19;20318;-80
2024/02/19 02:51:00;;;;;;;24.70;8.03;;;12.20;99.90;;;;;;7283460;19;20308;-80
2024/02/19 02:53:26;;;;;;;25.40;8.23;;;12.20;99.90;;;;;;7289024;19;20185;-80
2024/02/19 02:55:51;;;;;;;26.53;8.30;;;12.20;99.90;;;;;;7289865;19;20192;-80
2024/02/19 02:58:17;;;;;;;25.00;7.97;;;12.20;99.90;;;;;;7289226;19;20190;-80
2024/02/19 03:00:43;;;;;;;32.10;8.60;;;12.20;99.90;;;;;;7300008;19;20196;-79
2024/02/19 03:03:09;;;;;;;28.23;8.73;;;12.30;99.90;;;;;;7308583;19;20186;-80
2024/02/19 03:05:35;;;;;;;27.07;8.60;;;12.30;99.90;;;;;;7288282;19;20211;-80
2024/02/19 03:08:02;;;;;;;23.30;8.20;;;12.30;99.90;;;;;;7288908;19;20293;-80
2024/02/19 03:10:28;;;;;;;22.33;9.60;;;12.30;99.90;;;;;;7289277;19;20192;-80
2024/02/19 03:12:53;;;;;;;26.37;9.43;;;12.30;99.90;;;;;;7287575;19;20183;-80
2024/02/19 03:15:19;;;;;;;32.80;11.10;;;12.30;99.90;;;;;;7288869;19;20635;-80
2024/02/19 03:17:45;;;;;;;28.10;10.80;;;12.30;99.90;;;;;;7287100;19;20187;-79
2024/02/19 03:20:12;;;;;;;30.13;10.93;;;12.20;99.90;;;;;;7311944;19;20187;-80
2024/02/19 03:22:40;;;;;;;29.77;10.57;;;12.10;99.90;;;;;;7287456;19;20190;-80
2024/02/19 03:25:06;;;;;;;33.50;11.17;;;12.10;99.90;;;;;;7288799;19;20182;-80
2024/02/19 03:27:32;;;;;;;29.87;11.50;;;12.00;99.90;;;;;;7286897;19;21035;-80
2024/02/19 03:29:58;;;;;;;30.23;11.10;;;12.00;99.90;;;;;;7288343;19;20244;-80
2024/02/19 03:32:23;;;;;;;30.60;10.87;;;12.00;99.90;;;;;;7286752;19;20562;-80
2024/02/19 03:34:49;;;;;;;32.97;12.53;;;12.00;99.90;;;;;;7286369;19;20189;-80
2024/02/19 03:37:15;;;;;;;35.10;11.97;;;12.00;99.90;;;;;;7286837;19;20253;-79
2024/02/19 03:39:41;;;;;;;31.40;11.67;;;12.00;99.90;;;;;;7309122;19;20178;-80
2024/02/19 03:42:07;;;;;;;31.40;11.90;;;12.00;99.90;;;;;;7287826;19;20181;-80
2024/02/19 03:44:33;;;;;;;33.90;11.93;;;12.00;99.90;;;;;;7287601;19;20191;-81
2024/02/19 03:46:58;;;;;;;36.57;12.07;;;11.90;99.90;;;;;;7286794;19;20204;-80
2024/02/19 03:49:25;;;;;;;30.50;12.87;;;11.90;99.90;;;;;;7287970;19;20656;-80
2024/02/19 03:51:51;;;;;;;28.50;12.80;;;11.90;99.90;;;;;;7285396;19;20185;-81
2024/02/19 03:54:17;;;;;;;35.40;13.07;;;11.90;99.90;;;;;;7288074;19;20266;-80
2024/02/19 03:56:43;;;;;;;35.37;12.43;;;11.80;99.90;;;;;;7299003;19;20278;-80
2024/02/19 03:59:09;;;;;;;29.67;12.57;;;11.80;99.90;;;;;;7306682;19;20601;-80
2024/02/19 04:01:37;;;;;;;36.03;12.17;;;11.80;99.90;;;;;;7286351;19;20193;-80
2024/02/19 04:04:03;;;;;;;37.90;12.87;;;11.80;99.90;;;;;;7287074;19;20233;-80
2024/02/19 04:06:29;;;;;;;28.07;12.10;;;11.90;99.90;;;;;;7285284;19;20638;-80
2024/02/19 04:08:54;;;;;;;32.63;12.23;;;11.90;99.90;;;;;;7287534;19;20197;-80
2024/02/19 04:11:20;;;;;;;36.10;12.97;;;11.90;99.90;;;;;;7285000;19;20208;-80
2024/02/19 04:13:46;;;;;;;40.50;13.50;;;11.90;99.90;;;;;;7286983;19;20187;-80
2024/02/19 04:16:12;;;;;;;33.20;12.83;;;12.00;99.90;;;;;;7308132;19;20199;-80
2024/02/19 04:18:38;;;;;;;39.30;13.20;;;12.00;99.90;;;;;;7285568;19;20181;-81
2024/02/19 04:21:04;;;;;;;30.73;12.43;;;11.90;99.90;;;;;;7282833;19;20179;-81
2024/02/19 04:23:29;;;;;;;37.47;13.63;;;11.80;99.90;;;;;;7285726;19;20264;-80
2024/02/19 04:25:55;;;;;;;37.20;14.03;;;11.80;99.90;;;;;;7284378;19;20536;-80
2024/02/19 04:28:21;;;;;;;34.67;12.87;;;11.70;99.90;;;;;;7285600;19;20197;-80
2024/02/19 04:30:46;;;;;;;35.93;13.10;;;11.70;99.90;;;;;;7283832;19;20245;-80
2024/02/19 04:33:12;;;;;;;36.67;12.60;;;11.80;99.90;;;;;;7307430;19;20617;-81
2024/02/19 04:35:37;;;;;;;38.80;13.87;;;11.90;99.90;;;;;;7285505;19;20576;-80
2024/02/19 04:38:03;;;;;;;38.37;13.83;;;11.90;99.90;;;;;;7283860;19;20187;-80
2024/02/19 04:40:29;;;;;;;34.87;14.20;;;11.90;99.90;;;;;;7284248;19;20190;-80
2024/02/19 04:42:55;;;;;;;33.37;12.77;;;11.90;99.90;;;;;;7286837;19;20215;-80
2024/02/19 04:45:20;;;;;;;40.20;14.20;;;11.90;99.90;;;;;;7285370;19;20213;-80
2024/02/19 04:47:46;;;;;;;35.50;14.70;;;11.80;99.90;;;;;;7285155;19;20188;-80
2024/02/19 04:50:12;;;;;;;40.33;15.13;;;11.90;99.90;;;;;;7308028;19;20194;-80
2024/02/19 04:52:37;;;;;;;36.27;13.90;;;11.90;99.90;;;;;;7285776;19;20196;-80
2024/02/19 04:55:03;;;;;;;40.40;14.90;;;12.00;99.90;;;;;;7286295;19;20539;-81
2024/02/19 04:57:29;;;;;;;39.37;14.27;;;11.90;99.90;;;;;;7284257;19;20630;-80
2024/02/19 04:59:55;;;;;;;35.13;14.23;;;11.90;99.90;;;;;;7285561;19;20190;-80
2024/02/19 05:02:21;;;;;;;40.87;15.33;;;11.90;99.90;;;;;;7284681;19;20189;-80
2024/02/19 05:04:46;;;;;;;32.73;14.10;;;11.80;99.90;;;;;;7284158;19;20276;-79
2024/02/19 05:07:12;;;;;;;39.27;14.87;;;11.80;99.90;;;;;;7308036;19;20266;-79
2024/02/19 05:09:37;;;;;;;34.20;14.37;;;11.90;99.90;;;;;;7284898;19;20529;-80
2024/02/19 05:12:04;;;;;;;36.93;14.73;;;11.80;99.90;;;;;;7284180;19;20267;-80
2024/02/19 05:14:30;;;;;;;36.57;14.50;;;11.70;99.90;;;;;;7282860;19;20616;-80
2024/02/19 05:16:56;;;;;;;37.37;14.80;;;11.70;99.90;;;;;;7283762;19;20198;-80
2024/02/19 05:19:30;;;;;;;39.53;15.33;;;11.60;99.90;;;;;;7286702;19;20190;-81
2024/02/19 05:21:56;;;;;;;39.97;14.97;;;11.60;99.90;;;;;;7295718;19;20217;-79
2024/02/19 05:24:22;;;;;;;38.90;14.90;;;11.70;99.90;;;;;;7296106;19;20185;-79
2024/02/19 05:26:48;;;;;;;36.33;15.17;;;11.70;99.90;;;;;;7295988;19;20205;-81
2024/02/19 05:29:13;;;;;;;40.07;15.00;;;11.80;99.90;;;;;;7302097;19;20189;-80
2024/02/19 05:31:39;;;;;;;45.97;15.67;;;11.80;99.90;;;;;;7308363;19;20192;-81
2024/02/19 05:34:06;;;;;;;41.30;14.33;;;11.90;99.90;;;;;;7288223;19;20190;-81
2024/02/19 05:36:32;;;;;;;36.00;13.83;;;11.90;99.90;;;;;;7288858;19;20190;-81
2024/02/19 05:38:59;;;;;;;34.10;14.17;;;11.80;99.90;;;;;;7287076;19;20253;-80
2024/02/19 05:41:25;;;;;;;45.47;16.93;;;11.80;99.90;;;;;;7286249;19;20194;-81
2024/02/19 05:43:51;;;;;;;38.23;14.87;;;11.90;99.90;;;;;;7285815;19;20673;-80
2024/02/19 05:46:18;;;;;;;37.33;15.17;;;11.90;99.90;;;;;;7285034;19;20189;-80
2024/02/19 05:48:44;;;;;;;38.23;13.93;;;12.00;99.90;;;;;;7289495;19;20217;-80
2024/02/19 05:51:11;;;;;;;38.10;14.33;;;12.00;99.90;;;;;;7305242;19;20177;-81
2024/02/19 05:53:38;;;;;;;41.27;13.70;;;12.10;99.90;;;;;;7283083;19;20185;-80
2024/02/19 05:56:04;;;;;;;34.10;13.33;;;12.20;99.90;;;;;;7286523;19;20257;-81
2024/02/19 05:58:30;;;;;;;41.73;14.80;;;12.10;99.90;;;;;;7283326;19;20660;-81
2024/02/19 06:00:56;;;;;;;37.83;13.97;;;12.20;99.90;;;;;;7285207;19;20199;-81
2024/02/19 06:03:24;;;;;;;35.57;13.63;;;12.10;99.90;;;;;;7283685;19;20284;-80
2024/02/19 06:05:50;;;;;;;34.73;13.73;;;12.00;99.90;;;;;;7282256;19;20216;-80
2024/02/19 06:08:16;;;;;;;33.30;13.83;;;12.00;99.90;;;;;;7284668;19;20283;-80
2024/02/19 06:10:45;;;;;;;36.23;13.27;;;11.90;99.90;;;;;;7305425;19;20193;-80
2024/02/19 06:13:11;;;;;;;37.10;13.30;;;11.90;99.90;;;;;;7282769;19;20526;-80
2024/02/19 06:15:37;;;;;;;35.67;13.50;;;11.90;99.90;;;;;;7283066;19;20277;-80
2024/02/19 06:18:03;;;;;;;36.30;12.73;;;11.80;99.90;;;;;;7282016;19;20251;-80
2024/02/19 06:20:29;;;;;;;35.37;13.17;;;11.90;99.90;;;;;;7282979;19;20206;-79
2024/02/19 06:22:54;;;;;;;37.03;13.83;;;11.90;99.90;;;;;;7283583;19;20199;-79
2024/02/19 06:25:20;;;;;;;29.73;13.30;;;11.90;99.90;;;;;;7283508;19;20666;-80
2024/02/19 06:27:46;;;;;;;36.60;14.03;;;11.90;99.90;;;;;;7283311;19;20731;-79
2024/02/19 06:30:12;;;;;;;35.00;12.87;;;11.90;99.90;;;;;;7304946;19;20231;-80
2024/02/19 06:32:37;;;;;;;32.43;12.73;;;11.90;99.90;;;;;;7281189;19;20190;-79
2024/02/19 06:35:04;;;;;;;34.73;13.30;;;11.90;99.90;;;;;;7281611;19;20194;-79
2024/02/19 06:37:30;;;;;;;33.47;13.03;;;11.90;99.90;;;;;;7281781;19;20193;-79
2024/02/19 06:39:56;;;;;;;32.13;13.47;;;11.80;99.90;;;;;;7280495;19;20264;-79
2024/02/19 06:42:22;;;;;;;36.40;13.27;;;11.80;99.90;;;;;;7280564;19;20525;-79
2024/02/19 06:44:48;;;;;;;31.30;13.13;;;11.80;99.90;;;;;;7280432;19;20193;-79
2024/02/19 06:47:13;;;;;;;33.00;13.43;;;11.90;99.90;;;;;;7295115;19;20197;-79
2024/02/19 06:49:39;;;;;;;29.97;13.40;;;11.80;99.90;;;;;;7294701;19;20593;-79
2024/02/19 06:52:05;;;;;;;32.73;13.93;;;11.90;99.90;;;;;;7281979;19;20293;-80
2024/02/19 06:54:31;;;;;;;31.60;13.43;;;11.80;99.90;;;;;;7282328;19;20193;-79
2024/02/19 06:56:56;;;;;;;28.30;12.80;;;11.80;99.90;;;;;;7282346;19;20204;-80
2024/02/19 06:59:22;;;;;;;32.00;12.47;;;11.70;99.90;;;;;;7282810;19;20235;-80
2024/02/19 07:01:49;;;;;;;30.37;12.63;;;11.70;99.90;;;;;;7286228;19;20717;-81
2024/02/19 07:04:15;;;;;;;31.20;12.27;;;11.70;99.90;;;;;;7285576;19;20201;-80
2024/02/19 07:06:40;;;;;;;29.53;13.00;;;11.60;99.90;;;;;;7303920;19;20214;-81
2024/02/19 07:09:06;;;;;;;28.80;12.23;;;11.60;99.90;;;;;;7282356;19;20192;-80
2024/02/19 07:11:32;;;;;;;32.87;12.50;;;11.70;99.90;;;;;;7280729;19;20189;-79
2024/02/19 07:13:57;;;;;;;33.17;12.93;;;11.70;99.90;;;;;;7282234;19;20196;-80
2024/02/19 07:16:23;;;;;;;32.77;13.13;;;11.70;99.90;;;;;;7281498;19;20212;-80
2024/02/19 07:18:49;;;;;;;29.87;12.20;;;11.60;99.90;;;;;;7280775;19;20216;-80
2024/02/19 07:21:16;;;;;;;32.57;13.00;;;11.70;99.90;;;;;;7281577;19;20197;-79
2024/02/19 07:23:42;;;;;;;31.50;13.50;;;11.60;99.90;;;;;;7305332;19;20192;-79
2024/02/19 07:26:08;;;;;;;40.13;13.43;;;11.60;99.90;;;;;;7283181;19;20193;-79
2024/02/19 07:28:33;;;;;;;34.23;13.07;;;11.60;99.90;;;;;;7282357;19;20261;-79
2024/02/19 07:30:59;;;;;;;27.00;12.53;;;11.50;99.90;;;;;;7280642;19;20195;-80
2024/02/19 07:33:27;;;;;;;29.77;12.30;;;11.50;99.90;;;;;;7282911;19;20201;-80
2024/02/19 07:35:53;;;;;;;31.17;11.97;;;11.40;99.90;;;;;;7281739;19;20250;-80
2024/02/19 07:38:20;;;;;;;27.97;12.37;;;11.40;99.90;;;;;;7285672;19;20215;-80
2024/02/19 07:40:46;;;;;;;34.57;11.70;;;11.40;99.90;;;;;;7290186;19;20656;-79
2024/02/19 07:43:15;;;;;;;38.17;12.17;;;11.50;99.90;;;;;;7311484;19;20220;-81
2024/02/19 07:45:40;;;;;;;31.00;11.90;;;11.50;99.90;;;;;;7288427;19;20197;-79
2024/02/19 07:48:07;;;;;;;30.90;11.80;;;11.70;99.90;;;;;;7287081;19;20201;-78
2024/02/19 07:50:35;;;;;;;36.33;12.63;;;11.70;99.90;;;;;;7287555;19;20672;-79
2024/02/19 07:53:03;;;;;;;29.33;11.83;;;11.80;99.90;;;;;;7286886;19;20666;-79
2024/02/19 07:55:31;;;;;;;32.83;12.03;;;11.80;99.90;;;;;;7282786;19;20208;-79
2024/02/19 07:57:57;;;;;;;30.90;11.37;;;11.80;99.90;;;;;;7352792;19;20201;-79
2024/02/19 08:00:23;;;;;;;33.53;11.83;;;11.70;99.90;;;;;;7400373;19;20157;-79
2024/02/19 08:02:49;;;;;;;27.30;10.87;;;11.70;99.90;;;;;;7322074;19;20201;-79
2024/02/19 08:05:16;;;;;;;28.97;11.23;;;11.70;99.90;;;;;;7287603;19;20192;-79
2024/02/19 08:07:42;;;;;;;30.43;11.03;;;11.70;99.90;;;;;;7288208;19;20197;-79
2024/02/19 08:10:08;;;;;;;29.57;10.73;;;11.80;99.90;;;;;;7285967;19;20193;-79
2024/02/19 08:12:34;;;;;;;29.27;10.43;;;11.90;99.90;;;;;;7283855;19;20197;-78
2024/02/19 08:15:00;;;;;;;31.67;11.10;;;12.00;99.90;;;;;;7311062;19;20555;-79
2024/02/19 08:17:26;;;;;;;28.13;10.13;;;12.00;99.90;;;;;;7288451;19;20583;-80
2024/02/19 08:19:52;;;;;;;27.40;9.80;;;12.10;99.90;;;;;;7286214;19;20282;-80
2024/02/19 08:22:17;;;;;;;28.10;9.47;;;12.20;99.90;;;;;;7288499;19;20193;-80
2024/02/19 08:24:43;;;;;;;28.43;9.83;;;12.30;99.90;;;;;;7286613;19;20193;-80
2024/02/19 08:27:09;;;;;;;27.17;9.47;;;12.60;99.90;;;;;;7282689;19;20686;-81
2024/02/19 08:29:37;;;;;;;24.90;8.83;;;12.80;99.90;;;;;;7284317;19;20182;-80
2024/02/19 08:32:03;;;;;;;25.60;9.67;;;12.90;99.90;;;;;;7287920;19;20286;-80
2024/02/19 08:34:29;;;;;;;28.73;9.90;;;13.00;99.90;;;;;;7309121;19;20188;-81
2024/02/19 08:36:55;;;;;;;23.20;9.23;;;13.10;99.90;;;;;;7283870;19;20265;-81
2024/02/19 08:39:20;;;;;;;28.50;9.40;;;13.20;99.90;;;;;;7286431;19;20662;-80
2024/02/19 08:41:46;;;;;;;25.93;9.60;;;13.40;99.90;;;;;;7287236;19;20213;-81
2024/02/19 08:44:12;;;;;;;26.20;10.37;;;13.60;99.90;;;;;;7286498;19;20638;-81
2024/02/19 08:46:37;;;;;;;31.80;11.67;;;13.40;99.90;;;;;;7287768;19;20191;-80
2024/02/19 08:49:03;;;;;;;31.37;13.20;;;13.30;99.90;;;;;;7286260;19;20254;-80
2024/02/19 08:51:29;;;;;;;30.77;14.20;;;12.90;99.90;;;;;;7307747;19;20194;-81
2024/02/19 08:53:55;;;;;;;35.17;16.90;;;12.70;99.90;;;;;;7286548;19;20625;-81
2024/02/19 08:56:21;;;;;;;36.90;17.97;;;12.70;99.90;;;;;;7284270;19;20320;-81
2024/02/19 08:58:46;;;;;;;36.20;19.17;;;12.50;99.90;;;;;;7285050;19;20660;-81
2024/02/19 09:01:14;;;;;;;38.40;20.90;;;12.40;99.90;;;;;;7285474;19;20193;-81
2024/02/19 09:03:40;;;;;;;42.73;20.93;;;12.30;99.90;;;;;;7285145;19;20196;-81
2024/02/19 09:06:06;;;;;;;41.43;22.20;;;12.30;99.90;;;;;;7285063;19;20177;-80
2024/02/19 09:08:32;;;;;;;43.60;22.40;;;12.30;99.90;;;;;;7299502;19;20188;-80
2024/02/19 09:10:58;;;;;;;46.50;22.17;;;12.20;99.90;;;;;;7307252;19;20196;-81
2024/02/19 09:13:24;;;;;;;43.60;22.10;;;12.20;99.90;;;;;;7284083;19;20257;-81
2024/02/19 09:15:49;;;;;;;39.53;19.53;;;12.10;99.90;;;;;;7285664;19;20648;-81
2024/02/19 09:18:15;;;;;;;41.57;19.40;;;12.20;99.90;;;;;;7284027;19;20187;-80
2024/02/19 09:20:41;;;;;;;43.10;18.03;;;12.20;99.90;;;;;;7284458;19;20189;-81
2024/02/19 09:23:06;;;;;;;36.83;17.93;;;12.20;99.90;;;;;;7284238;19;20667;-80
2024/02/19 09:25:32;;;;;;;39.90;18.13;;;12.30;99.90;;;;;;7296809;19;20201;-80
2024/02/19 09:27:58;;;;;;;44.00;19.50;;;12.20;99.90;;;;;;7301730;19;20218;-81
2024/02/19 09:30:24;;;;;;;41.97;19.17;;;12.20;99.90;;;;;;7283915;19;20181;-81
2024/02/19 09:32:50;;;;;;;42.37;18.93;;;12.20;99.90;;;;;;7284713;19;20197;-80
2024/02/19 09:35:18;;;;;;;40.73;18.37;;;12.10;99.90;;;;;;7284404;19;20190;-80
2024/02/19 09:37:43;;;;;;;44.70;19.13;;;12.10;99.90;;;;;;7284003;19;20197;-80
2024/02/19 09:40:12;;;;;;;40.23;18.63;;;12.30;99.90;;;;;;7284681;19;20234;-81
2024/02/19 09:42:39;;;;;;;44.27;18.23;;;12.40;99.90;;;;;;7284080;19;20198;-80
2024/02/19 09:45:08;;;;;;;37.03;18.57;;;12.50;99.90;;;;;;7283708;19;20194;-80
2024/02/19 09:47:35;;;;;;;39.80;18.93;;;12.60;99.90;;;;;;7283757;19;20205;-80
2024/02/19 09:50:02;;;;;;;39.13;18.57;;;12.50;99.90;;;;;;7304088;19;20647;-81
2024/02/19 09:52:30;;;;;;;40.20;18.50;;;12.50;99.90;;;;;;7283243;19;20309;-81
2024/02/19 09:54:56;;;;;;;38.20;18.50;;;12.50;99.90;;;;;;7284519;19;20194;-80
2024/02/19 09:57:22;;;;;;;40.67;19.17;;;12.40;99.90;;;;;;7285942;19;20201;-81
2024/02/19 09:59:48;;;;;;;38.27;19.07;;;12.40;99.90;;;;;;7281614;19;20193;-80
2024/02/19 10:02:18;;;;;;;41.13;18.80;;;12.40;99.90;;;;;;7282389;19;20212;-80
2024/02/19 10:04:47;;;;;;;42.37;19.43;;;12.40;99.90;;;;;;7284057;19;20192;-80
2024/02/19 10:07:19;;;;;;;39.80;18.60;;;12.40;99.90;;;;;;7282381;19;20184;-81
2024/02/19 10:09:46;;;;;;;41.77;17.53;;;12.40;99.90;;;;;;7282331;19;20201;-81
2024/02/19 10:12:12;;;;;;;33.80;16.53;;;12.40;99.90;;;;;;7282427;19;20196;-81
2024/02/19 10:14:38;;;;;;;42.40;17.00;;;12.20;99.90;;;;;;7284014;19;20193;-80
2024/02/19 10:17:05;;;;;;;39.90;17.53;;;12.10;99.90;;;;;;7282746;19;20190;-79
2024/02/19 10:19:31;;;;;;;41.93;17.77;;;12.00;99.90;;;;;;7305917;19;20240;-81
2024/02/19 10:21:58;;;;;;;37.17;17.57;;;12.00;99.90;;;;;;7283258;19;20648;-81
2024/02/19 10:24:23;;;;;;;41.47;18.77;;;12.00;99.90;;;;;;7282261;19;20200;-80
2024/02/19 10:26:50;;;;;;;39.90;17.97;;;12.10;99.90;;;;;;7281389;19;20196;-81
2024/02/19 10:29:17;;;;;;;43.53;18.37;;;12.10;99.90;;;;;;7283779;19;20991;-80
2024/02/19 10:31:43;;;;;;;42.43;18.87;;;12.20;99.90;;;;;;7282186;19;20196;-81
2024/02/19 10:34:09;;;;;;;37.37;17.83;;;12.20;99.90;;;;;;7282320;19;20188;-81
2024/02/19 10:36:35;;;;;;;45.23;18.47;;;12.20;99.90;;;;;;7281432;19;20185;-80
2024/02/19 10:39:03;;;;;;;45.70;19.13;;;12.00;99.90;;;;;;7304416;19;20188;-81
2024/02/19 10:41:29;;;;;;;42.43;18.67;;;12.10;99.90;;;;;;7281118;19;20195;-81
2024/02/19 10:43:56;;;;;;;44.33;19.17;;;12.10;99.90;;;;;;7282306;19;20710;-82
2024/02/19 10:46:23;;;;;;;47.53;18.57;;;12.20;99.90;;;;;;7282205;19;20285;-81
2024/02/19 10:48:52;;;;;;;41.70;17.97;;;12.10;99.90;;;;;;7282637;19;20212;-81
2024/02/19 10:51:22;;;;;;;43.47;18.57;;;12.30;99.90;;;;;;7282070;19;20199;-79
2024/02/19 10:53:58;;;;;;;41.80;17.77;;;12.40;99.90;;;;;;7281685;19;20194;-79
2024/02/19 10:56:24;;;;;;;43.20;18.30;;;12.30;99.90;;;;;;7282278;19;20638;-79
2024/02/19 10:58:56;;;;;;;40.30;18.07;;;12.50;99.90;;;;;;7282159;19;20269;-80
2024/02/19 11:01:23;;;;;;;41.57;18.10;;;12.50;99.90;;;;;;7279345;19;20314;-79
2024/02/19 11:03:49;;;;;;;39.63;17.43;;;12.50;99.90;;;;;;7282002;19;20536;-80
2024/02/19 11:06:15;;;;;;;37.00;16.60;;;12.50;99.90;;;;;;7282755;19;20189;-80
2024/02/19 11:08:53;;;;;;;36.53;15.90;;;12.30;99.90;;;;;;7282527;19;20668;-79
2024/02/19 11:11:22;;;;;;;27.90;13.03;;;12.30;99.90;;;;;;7282419;19;20550;-79
2024/02/19 11:13:48;;;;;;;29.03;13.17;;;12.10;99.90;;;;;;7289741;19;20192;-79
2024/02/19 11:16:18;;;;;;;28.10;13.00;;;12.00;99.90;;;;;;7289341;19;20220;-80
2024/02/19 11:18:44;;;;;;;31.60;12.80;;;12.10;99.90;;;;;;7289365;19;20199;-80
2024/02/19 11:21:10;;;;;;;23.53;10.20;;;12.20;99.90;;;;;;7288365;19;20248;-79
2024/02/19 11:23:36;;;;;;;25.80;10.90;;;12.20;99.90;;;;;;7290230;19;20200;-79
2024/02/19 11:26:03;;;;;;;25.83;10.23;;;12.40;99.90;;;;;;7307038;19;20189;-78
2024/02/19 11:28:32;;;;;;;17.10;8.37;;;12.40;99.90;;;;;;7308942;19;20200;-80
2024/02/19 11:31:02;;;;;;;18.90;8.87;;;12.50;99.90;;;;;;7288588;19;20198;-79
2024/02/19 11:33:29;;;;;;;20.93;8.17;;;12.60;99.90;;;;;;7288100;19;20585;-79
2024/02/19 11:35:58;;;;;;;22.40;8.40;;;12.70;99.90;;;;;;7287561;19;20356;-80
2024/02/19 11:38:31;;;;;;;21.00;8.30;;;12.90;99.90;;;;;;7287453;19;20302;-79
2024/02/19 11:40:59;;;;;;;16.63;7.80;;;13.00;99.90;;;;;;7289377;19;20253;-81
2024/02/19 11:43:29;;;;;;;19.77;7.70;;;13.10;99.90;;;;;;7286488;19;20199;-80
2024/02/19 11:45:55;;;;;;;18.10;7.10;;;13.10;99.90;;;;;;7288504;19;20201;-81
2024/02/19 11:48:21;;;;;;;18.23;7.13;;;13.10;99.90;;;;;;7286801;19;20194;-81
2024/02/19 11:50:46;;;;;;;19.83;7.47;;;13.10;99.90;;;;;;7287421;19;20258;-80
2024/02/19 11:53:12;;;;;;;16.83;7.77;;;13.00;99.90;;;;;;7288157;19;20208;-81
2024/02/19 11:55:39;;;;;;;18.20;7.97;;;13.00;99.90;;;;;;7287752;19;20197;-81
2024/02/19 11:58:08;;;;;;;19.20;7.97;;;13.00;99.90;;;;;;7284922;19;20294;-80
2024/02/19 12:00:35;;;;;;;20.27;7.93;;;13.00;99.90;;;;;;7286161;19;20210;-80
2024/02/19 12:03:03;;;;;;;20.37;8.47;;;13.00;99.90;;;;;;7307107;19;20289;-80
2024/02/19 12:05:29;;;;;;;20.57;8.03;;;13.00;99.90;;;;;;7286368;19;20548;-80
2024/02/19 12:07:55;;;;;;;20.07;9.07;;;13.10;99.90;;;;;;7284469;19;20273;-81
2024/02/19 12:10:21;;;;;;;17.50;8.73;;;13.10;99.90;;;;;;7287023;19;20257;-81
2024/02/19 12:12:48;;;;;;;21.70;8.43;;;13.10;99.90;;;;;;7286066;19;20209;-81
2024/02/19 12:15:20;;;;;;;19.17;8.13;;;13.10;99.90;;;;;;7286837;19;20217;-81
2024/02/19 12:17:48;;;;;;;17.63;7.77;;;13.20;99.90;;;;;;7286561;19;20612;-81
2024/02/19 12:20:14;;;;;;;16.47;7.87;;;13.20;99.90;;;;;;7287549;19;20202;-81
2024/02/19 12:22:40;;;;;;;21.67;8.13;;;13.40;99.90;;;;;;7285220;19;20675;-80